• Join FlightAware (Why Join?)
  • Login
  • US Flag 
Gobble Gobble! 
02:01PM EST


 

Airport Tracker/Info


-or-


 

Live Flight TrackerFlight Track Log ✈ N53NW ✈ 30-Aug-2013 ✈ KJAX - KAJR

Flight Track Log - Related Links

Times and Time Zones

All times are in EDT time to prevent confusion due to time zone crossing. See the N53NW flight status page for this flight to view local times or setup timezone preferences in your user account.

Time Position Orientation Groundspeed Altitude Reporting Facility
EDT Latitude Longitude Course Direction KTS MPH feet Rate Location/Type
06:37PM 30.5031 -81.6775 North 163 188 600  Level Jacksonville Center
06:38PM 30.5572 -81.6672 North 212 244 2,700 2,460 Climbing Jacksonville Center
06:39PM 30.6386 -81.6733 356° North 252 290 5,900 3,000 Climbing Jacksonville Center
06:40PM 30.7117 -81.6819 354° North 263 303 8,700 2,760 Climbing Jacksonville Center
06:41PM 30.7808 -81.7150 338° Northwest 263 303 11,500 2,640 Climbing Jacksonville Center
06:42PM 30.8442 -81.7675 325° Northwest 263 303 14,000 2,100 Climbing Jacksonville Center
06:43PM 30.9072 -81.8200 324° Northwest 275 316 15,700 1,620 Climbing Jacksonville Center
06:44PM 30.9767 -81.8772 325° Northwest 290 334 17,300 1,560 Climbing Jacksonville Center
06:45PM 31.0561 -81.9153 338° Northwest 302 348 18,900 1,560 Climbing Jacksonville Center
06:46PM 31.1381 -81.9556 337° Northwest 308 354 20,500 1,560 Climbing Jacksonville Center
06:47PM 31.2217 -81.9936 339° North 315 362 22,100 1,560 Climbing Jacksonville Center
06:48PM 31.3014 -82.0319 338° Northwest 310 357 23,700 1,500 Climbing Jacksonville Center
06:49PM 31.3808 -82.0725 336° Northwest 310 357 25,200 1,380 Climbing Jacksonville Center
06:50PM 31.4625 -82.1108 338° Northwest 317 365 26,500 900 Climbing Jacksonville Center
06:51PM 31.5525 -82.1539 338° Northwest 317 365 27,000 240 Climbing Jacksonville Center
06:52PM 31.6489 -82.1728 351° North 346 398 27,000  Level Jacksonville Center
06:54PM 31.8625 -82.2072 352° North 390 449 27,000  Level Atlanta Center
06:55PM 31.9633 -82.2567 337° Northwest 380 437 27,000  Level Atlanta Center
06:56PM 32.0622 -82.3061 337° Northwest 375 432 27,000  Level Atlanta Center
06:57PM 32.1608 -82.3558 337° Northwest 380 437 27,000  Level Atlanta Center
06:58PM 32.2408 -82.3936 338° Northwest 380 437 27,000  Level Atlanta Center
06:59PM 32.3478 -82.4481 337° Northwest 380 437 27,000  Level Atlanta Center
07:00PM 32.4486 -82.4956 338° Northwest 380 437 27,000  Level Atlanta Center
07:01PM 32.5494 -82.5528 334° Northwest 385 443 27,000 -540 Level Atlanta Center
07:02PM 32.6522 -82.5956 341° North 385 443 26,000 -1,200 Descending Atlanta Center
07:03PM 32.7511 -82.6508 335° Northwest 390 449 24,700 -1,380 Descending Atlanta Center
07:04PM 32.8456 -82.7011 336° Northwest 377 434 23,300 -1,500 Descending Atlanta Center
07:05PM 32.9378 -82.7469 337° Northwest 367 422 21,800 -1,740 Descending Atlanta Center
07:06PM 33.0303 -82.7925 338° Northwest 361 415 19,900 -1,800 Descending Atlanta Center
07:07PM 33.1206 -82.8383 337° Northwest 355 409 18,200 -960 Descending Atlanta Center
07:08PM 33.2044 -82.8844 335° Northwest 349 402 18,000 -120 Descending Atlanta Center
07:09PM 33.3008 -82.9353 336° Northwest 337 388 18,000  Level Atlanta Center
07:10PM 33.3889 -82.9789 338° Northwest 337 388 18,000 -780 Level Atlanta Center
07:11PM 33.4769 -83.0228 337° Northwest 343 395 16,500 -1,920 Descending Atlanta Center
07:12PM 33.5628 -83.0664 337° Northwest 336 387 14,200 -2,280 Descending Atlanta Center
07:13PM 33.6447 -83.1106 336° Northwest 336 387 12,000 -2,100 Descending Atlanta Center
07:14PM 33.7181 -83.1497 336° Northwest 330 380 10,100 -1,980 Descending Atlanta Center
07:15PM 33.7914 -83.1914 335° Northwest 310 357 8,100 -1,080 Descending Atlanta Center
07:16PM 33.8500 -83.2458 322° Northwest 283 326 8,000 -60 Descending Atlanta Center
07:17PM 33.9131 -83.3003 324° Northwest 273 314 8,000 -240 Level Atlanta Center
07:18PM 33.9697 -83.3550 321° Northwest 268 308 7,600 -1,200 Descending Atlanta Center
07:19PM 34.0286 -83.4122 321° Northwest 268 308 5,700 -1,800 Descending Atlanta Center
07:20PM 34.0872 -83.4619 325° Northwest 268 308 4,100 -900 Descending Atlanta Center
07:21PM 34.1397 -83.5167 319° Northwest 255 293 4,000 -60 Descending Atlanta Center
07:23PM 34.2667 -83.6333 323° Northwest 239 275 4,000  Level Atlanta TRACON
07:24PM 34.3167 -83.6833 320° Northwest 265 305 4,000 -60 Level Atlanta TRACON
07:25PM 34.3833 -83.7333 328° Northwest 245 282 3,900 -300 Descending Atlanta TRACON
07:26PM 34.4167 -83.7000 40° Northeast 199 229 3,400 -420 Descending Atlanta TRACON
07:27PM 34.4500 -83.6500 51° Northeast 188 216 3,100 -300 Descending Atlanta TRACON